createdAt,value
2019-04-26T00:00:32.569Z,0.00
2019-04-26T00:01:32.542Z,0.00
2019-04-26T00:02:32.519Z,0.00
2019-04-26T00:03:32.506Z,0.00
2019-04-26T00:04:32.478Z,0.00
2019-04-26T00:05:35.522Z,0.00
2019-04-26T00:06:32.437Z,0.00
2019-04-26T00:07:32.414Z,0.00
2019-04-26T00:08:32.390Z,0.00
2019-04-26T00:09:32.379Z,0.00
2019-04-26T00:10:32.351Z,0.00
2019-04-26T00:11:32.331Z,0.00
2019-04-26T00:12:32.310Z,0.00
2019-04-26T00:13:32.293Z,0.00
2019-04-26T00:14:32.271Z,0.00
2019-04-26T00:15:32.249Z,0.00
2019-04-26T00:16:32.230Z,0.00
2019-04-26T00:17:32.209Z,0.00
2019-04-26T00:18:32.186Z,0.00
2019-04-26T00:19:32.161Z,0.00
2019-04-26T00:20:32.156Z,0.00
2019-04-26T00:21:32.123Z,0.00
2019-04-26T00:22:32.102Z,0.00
2019-04-26T00:23:32.079Z,0.00
2019-04-26T00:24:32.058Z,0.00
2019-04-26T00:25:32.035Z,0.00
2019-04-26T00:26:32.028Z,0.00
2019-04-26T00:27:31.991Z,0.00
2019-04-26T00:28:31.972Z,0.00
2019-04-26T00:29:31.953Z,0.00
2019-04-26T00:30:31.937Z,0.00
2019-04-26T00:31:31.905Z,0.00
2019-04-26T00:32:31.898Z,0.00
2019-04-26T00:33:31.866Z,0.00
2019-04-26T00:34:31.843Z,0.00
2019-04-26T00:35:31.822Z,0.00
2019-04-26T00:36:31.796Z,0.00
2019-04-26T00:37:31.777Z,0.00
2019-04-26T00:38:31.757Z,0.00
2019-04-26T00:39:31.739Z,0.00
2019-04-26T00:40:31.711Z,0.00
2019-04-26T00:41:31.688Z,0.00
2019-04-26T00:42:31.669Z,0.00
2019-04-26T00:43:31.653Z,0.00
2019-04-26T00:44:31.633Z,0.00
2019-04-26T00:45:31.606Z,0.00
2019-04-26T00:46:31.581Z,0.00
2019-04-26T00:47:31.565Z,0.00
2019-04-26T00:48:31.537Z,0.00
2019-04-26T00:49:42.939Z,0.00
2019-04-26T00:50:31.506Z,0.00
2019-04-26T00:51:31.473Z,0.00
2019-04-26T00:52:31.501Z,0.00
2019-04-26T00:53:31.429Z,0.00
2019-04-26T00:54:31.393Z,0.00
2019-04-26T00:55:40.099Z,0.00
2019-04-26T00:57:27.487Z,0.00
2019-04-26T00:58:27.280Z,0.00
2019-04-26T00:59:27.229Z,0.00
2019-04-26T01:00:27.725Z,0.00
2019-04-26T01:01:27.172Z,0.00
2019-04-26T01:02:27.166Z,0.00
2019-04-26T01:03:27.150Z,0.00
2019-04-26T01:04:27.114Z,0.00
2019-04-26T01:05:27.126Z,0.00
2019-04-26T01:06:27.082Z,0.00
2019-04-26T01:07:27.037Z,0.00
2019-04-26T01:08:27.018Z,0.00
2019-04-26T01:09:26.991Z,0.00
2019-04-26T01:10:26.987Z,0.00
2019-04-26T01:11:26.958Z,0.00
2019-04-26T01:12:26.955Z,0.00
2019-04-26T01:13:26.908Z,0.00
2019-04-26T01:14:26.885Z,0.00
2019-04-26T01:15:26.872Z,0.00
2019-04-26T01:16:26.841Z,0.00
2019-04-26T01:17:26.872Z,0.00
2019-04-26T01:18:26.809Z,0.00
2019-04-26T01:19:26.808Z,0.00
2019-04-26T01:20:26.812Z,0.00
2019-04-26T01:21:26.934Z,0.00
2019-04-26T01:22:27.623Z,0.00
2019-04-26T01:23:27.288Z,0.00
2019-04-26T01:24:27.295Z,0.00
2019-04-26T01:25:27.421Z,0.00
2019-04-26T01:26:27.412Z,0.00
2019-04-26T01:27:27.652Z,0.00
2019-04-26T01:28:26.592Z,0.00
2019-04-26T01:29:26.559Z,0.00
2019-04-26T01:30:26.568Z,0.00
2019-04-26T01:31:26.542Z,0.00
2019-04-26T01:32:26.496Z,0.00
2019-04-26T01:33:26.466Z,0.00
2019-04-26T01:36:12.901Z,0.00
2019-04-26T01:37:05.528Z,0.00
2019-04-26T01:39:09.465Z,0.00
2019-04-26T01:40:09.397Z,0.00
2019-04-26T01:42:05.359Z,0.00
2019-04-26T01:43:05.328Z,0.00
2019-04-26T01:45:15.683Z,0.00
2019-04-26T01:46:15.205Z,0.00
2019-04-26T01:48:09.569Z,0.00
2019-04-26T01:49:09.545Z,0.00
2019-04-26T01:50:09.519Z,0.00
2019-04-26T01:51:09.495Z,0.00
2019-04-26T01:52:09.486Z,0.00
2019-04-26T01:53:09.455Z,0.00
2019-04-26T01:54:09.432Z,0.00
2019-04-26T01:55:09.409Z,0.00
2019-04-26T01:56:09.389Z,0.00
2019-04-26T01:57:09.360Z,0.00
2019-04-26T01:58:09.344Z,0.00
2019-04-26T01:59:09.328Z,0.00
2019-04-26T02:00:09.296Z,0.00
2019-04-26T02:01:09.277Z,0.00
2019-04-26T02:02:09.251Z,0.00
2019-04-26T02:03:09.231Z,0.00
2019-04-26T02:04:09.211Z,0.00
2019-04-26T02:05:09.205Z,0.00
2019-04-26T02:06:09.162Z,0.00
2019-04-26T02:07:09.142Z,0.00
2019-04-26T02:08:09.122Z,0.00
2019-04-26T02:09:09.098Z,0.00
2019-04-26T02:10:09.107Z,0.00
2019-04-26T02:11:09.066Z,0.00
2019-04-26T02:12:09.075Z,0.00
2019-04-26T02:13:09.020Z,0.00
2019-04-26T02:14:08.999Z,0.00
2019-04-26T02:15:08.971Z,0.00
2019-04-26T02:16:08.950Z,0.00
2019-04-26T02:17:08.927Z,0.00
2019-04-26T02:18:08.901Z,0.00
2019-04-26T02:19:08.885Z,0.00
2019-04-26T02:20:08.859Z,0.00
2019-04-26T02:21:08.840Z,0.00
2019-04-26T02:22:08.812Z,0.00
2019-04-26T02:23:08.795Z,0.00
2019-04-26T02:24:08.772Z,0.00
2019-04-26T02:25:08.747Z,0.00
2019-04-26T02:26:08.724Z,0.00
2019-04-26T02:27:08.705Z,0.00
2019-04-26T02:28:08.677Z,0.00
2019-04-26T02:29:08.659Z,0.00
2019-04-26T02:30:08.644Z,0.00
2019-04-26T02:31:08.613Z,0.00
2019-04-26T02:32:08.596Z,0.00
2019-04-26T02:33:08.569Z,0.00
2019-04-26T02:34:08.548Z,0.00
2019-04-26T02:35:08.531Z,0.00
2019-04-26T02:36:08.500Z,0.00
2019-04-26T02:37:08.482Z,0.00
2019-04-26T02:38:08.454Z,0.00
2019-04-26T02:39:08.434Z,0.00
2019-04-26T02:40:08.410Z,0.00
2019-04-26T02:41:08.392Z,0.00
2019-04-26T02:42:08.370Z,0.00
2019-04-26T02:43:08.345Z,0.00
2019-04-26T02:44:08.325Z,0.00
2019-04-26T02:45:08.309Z,0.00
2019-04-26T02:46:08.282Z,0.00
2019-04-26T02:47:08.269Z,0.00
2019-04-26T02:48:08.232Z,0.00
2019-04-26T02:49:08.212Z,0.00
2019-04-26T02:50:08.191Z,0.00
2019-04-26T02:51:08.165Z,0.00
2019-04-26T02:52:08.142Z,0.00
2019-04-26T02:53:08.125Z,0.00
2019-04-26T02:54:08.097Z,0.00
2019-04-26T02:55:08.076Z,0.00
2019-04-26T02:56:08.063Z,0.00
2019-04-26T02:57:08.036Z,0.00
2019-04-26T02:58:08.007Z,0.00
2019-04-26T02:59:07.987Z,0.00
2019-04-26T03:00:07.961Z,0.00
2019-04-26T03:01:07.956Z,0.00
2019-04-26T03:02:07.920Z,0.00
2019-04-26T03:03:07.905Z,0.00
2019-04-26T03:04:07.875Z,0.00
2019-04-26T03:05:07.849Z,0.00
2019-04-26T03:06:07.834Z,0.00
2019-04-26T03:07:07.805Z,0.00
2019-04-26T03:08:07.789Z,0.00
2019-04-26T03:09:07.760Z,0.00
2019-04-26T03:10:07.740Z,0.00
2019-04-26T03:11:07.723Z,0.00
2019-04-26T03:12:07.691Z,0.00
2019-04-26T03:13:07.674Z,0.00
2019-04-26T03:14:07.647Z,0.00
2019-04-26T03:15:13.893Z,0.00
2019-04-26T03:16:07.603Z,0.00
2019-04-26T03:17:07.590Z,0.00
2019-04-26T03:18:07.556Z,0.00
2019-04-26T03:19:07.535Z,0.00
2019-04-26T03:20:07.535Z,0.00
2019-04-26T03:21:07.500Z,0.00
2019-04-26T03:22:07.474Z,0.00
2019-04-26T03:23:07.441Z,0.00
2019-04-26T03:24:07.425Z,0.00
2019-04-26T03:25:07.395Z,0.00
2019-04-26T03:26:07.376Z,0.00
2019-04-26T03:27:07.351Z,0.00
2019-04-26T03:28:07.325Z,0.00
2019-04-26T03:29:07.304Z,4.00
2019-04-26T03:30:19.906Z,4.00
2019-04-26T03:31:07.263Z,0.00
2019-04-26T03:32:07.264Z,4.00
2019-04-26T03:33:07.311Z,4.00
2019-04-26T03:34:07.526Z,4.00
2019-04-26T03:35:07.169Z,8.00
2019-04-26T03:36:07.171Z,8.00
2019-04-26T03:37:20.408Z,8.00
2019-04-26T03:38:07.099Z,12.00
2019-04-26T03:39:07.066Z,12.00
2019-04-26T03:40:07.042Z,12.00
2019-04-26T03:41:07.032Z,16.00
2019-04-26T03:42:14.187Z,20.00
2019-04-26T03:44:00.360Z,24.00
2019-04-26T03:44:59.857Z,32.00
2019-04-26T03:46:52.750Z,40.00
2019-04-26T03:47:52.727Z,44.00
2019-04-26T03:48:52.684Z,56.00
2019-04-26T03:49:54.581Z,60.00
2019-04-26T03:50:52.633Z,68.00
2019-04-26T03:51:52.616Z,84.00
2019-04-26T03:52:52.594Z,92.00
2019-04-26T03:53:52.569Z,108.00
2019-04-26T03:54:52.546Z,124.00
2019-04-26T03:55:52.525Z,140.00
2019-04-26T03:56:52.510Z,160.00
2019-04-26T03:57:52.475Z,180.00
2019-04-26T03:58:52.452Z,196.00
2019-04-26T03:59:52.428Z,216.00
2019-04-26T04:00:52.413Z,236.00
2019-04-26T04:01:52.387Z,260.00
2019-04-26T04:02:52.363Z,288.00
2019-04-26T04:03:52.337Z,324.00
2019-04-26T04:04:52.307Z,360.00
2019-04-26T04:05:52.293Z,400.00
2019-04-26T04:07:03.059Z,444.00
2019-04-26T04:07:52.247Z,492.00
2019-04-26T04:08:52.220Z,544.00
2019-04-26T04:09:52.211Z,608.00
2019-04-26T04:10:52.171Z,672.00
2019-04-26T04:12:09.689Z,740.00
2019-04-26T04:12:52.131Z,808.00
2019-04-26T04:13:52.277Z,868.00
2019-04-26T04:14:52.093Z,924.00
2019-04-26T04:15:52.055Z,980.00
2019-04-26T04:16:52.145Z,1028.00
2019-04-26T04:17:52.012Z,1072.00
2019-04-26T04:18:53.994Z,1132.00
2019-04-26T04:19:51.966Z,1200.00
2019-04-26T04:20:51.942Z,1284.00
2019-04-26T04:21:51.924Z,1364.00
2019-04-26T04:22:51.894Z,1436.00
2019-04-26T04:23:51.874Z,1492.00
2019-04-26T04:24:51.856Z,1560.00
2019-04-26T04:25:51.830Z,1644.00
2019-04-26T04:26:51.803Z,1732.00
2019-04-26T04:27:51.780Z,1804.00
2019-04-26T04:28:51.758Z,1868.00
2019-04-26T04:29:55.273Z,1932.00
2019-04-26T04:30:51.709Z,1992.00
2019-04-26T04:31:51.686Z,2048.00
2019-04-26T04:32:52.149Z,2108.00
2019-04-26T04:33:52.663Z,2164.00
2019-04-26T04:34:52.791Z,2192.00
2019-04-26T04:35:52.844Z,2316.00
2019-04-26T04:36:53.511Z,2424.00
2019-04-26T04:38:05.867Z,2508.00
2019-04-26T04:38:51.521Z,2580.00
2019-04-26T04:39:53.293Z,2636.00
2019-04-26T04:40:51.487Z,2628.00
2019-04-26T04:41:51.458Z,2688.00
2019-04-26T04:42:52.437Z,2680.00
2019-04-26T04:43:53.052Z,2524.00
2019-04-26T04:44:52.005Z,2624.00
2019-04-26T04:45:52.780Z,2568.00
2019-04-26T04:46:52.434Z,2612.00
2019-04-26T04:47:52.652Z,2676.00
2019-04-26T04:48:52.635Z,2928.00
2019-04-26T04:49:52.608Z,2900.00
2019-04-26T04:50:52.569Z,2812.00
2019-04-26T04:51:51.618Z,2744.00
2019-04-26T04:52:52.156Z,2564.00
2019-04-26T04:53:51.680Z,2408.00
2019-04-26T04:55:06.450Z,2296.00
2019-04-26T04:55:52.076Z,2248.00
2019-04-26T04:56:51.933Z,2216.00
2019-04-26T04:57:52.275Z,2216.00
2019-04-26T04:58:52.337Z,2248.00
2019-04-26T04:59:51.038Z,2296.00
2019-04-26T05:00:51.394Z,2396.00
2019-04-26T05:01:50.994Z,2528.00
2019-04-26T05:02:50.992Z,2640.00
2019-04-26T05:03:51.072Z,2692.00
2019-04-26T05:04:51.183Z,2772.00
2019-04-26T05:05:51.116Z,2908.00
2019-04-26T05:06:51.206Z,3124.00
2019-04-26T05:07:51.480Z,3400.00
2019-04-26T05:08:51.522Z,3732.00
2019-04-26T05:09:51.609Z,4172.00
2019-04-26T05:10:51.915Z,4704.00
2019-04-26T05:11:51.878Z,5188.00
2019-04-26T05:12:50.758Z,5584.00
2019-04-26T05:13:50.728Z,5924.00
2019-04-26T05:14:50.701Z,6024.00
2019-04-26T05:15:50.724Z,6096.00
2019-04-26T05:16:50.680Z,6216.00
2019-04-26T05:17:51.541Z,6432.00
2019-04-26T05:18:50.626Z,6840.00
2019-04-26T05:19:50.682Z,7016.00
2019-04-26T05:20:51.272Z,7116.00
2019-04-26T05:21:50.920Z,7052.00
2019-04-26T05:22:51.198Z,6992.00
2019-04-26T05:23:51.071Z,6940.00
2019-04-26T05:24:51.241Z,7012.00
2019-04-26T05:25:51.379Z,7220.00
2019-04-26T05:26:51.461Z,7356.00
2019-04-26T05:27:50.894Z,7320.00
2019-04-26T05:28:50.388Z,7280.00
2019-04-26T05:29:50.382Z,7292.00
2019-04-26T05:30:50.343Z,7248.00
2019-04-26T05:31:51.528Z,7336.00
2019-04-26T05:32:50.641Z,7456.00
2019-04-26T05:33:50.393Z,7580.00
2019-04-26T05:34:50.710Z,7688.00
2019-04-26T05:35:51.104Z,7800.00
2019-04-26T05:36:50.572Z,7944.00
2019-04-26T05:37:51.034Z,8156.00
2019-04-26T05:38:51.151Z,8380.00
2019-04-26T05:39:51.151Z,8632.00
2019-04-26T05:40:51.436Z,8924.00
2019-04-26T05:41:50.095Z,9380.00
2019-04-26T05:42:50.079Z,10168.00
2019-04-26T05:43:50.246Z,11356.00
2019-04-26T05:44:50.034Z,13920.00
2019-04-26T05:45:50.490Z,23328.00
2019-04-26T05:46:50.700Z,17088.00
2019-04-26T05:48:03.268Z,18176.00
2019-04-26T05:48:50.812Z,20448.00
2019-04-26T05:49:50.367Z,16384.00
2019-04-26T05:50:50.884Z,16224.00
2019-04-26T05:51:50.996Z,16480.00
2019-04-26T05:52:51.342Z,17120.00
2019-04-26T05:53:51.025Z,17952.00
2019-04-26T05:54:50.894Z,12460.00
2019-04-26T05:55:51.120Z,12404.00
2019-04-26T05:56:49.934Z,12836.00
2019-04-26T05:57:51.028Z,14024.00
2019-04-26T05:58:51.149Z,16512.00
2019-04-26T05:59:50.404Z,22176.00
2019-04-26T06:00:51.802Z,21472.00
2019-04-26T06:01:50.518Z,15780.00
2019-04-26T06:02:50.016Z,15540.00
2019-04-26T06:03:50.753Z,14996.00
2019-04-26T06:04:49.625Z,14548.00
2019-04-26T06:05:49.765Z,14148.00
2019-04-26T06:06:49.592Z,13792.00
2019-04-26T06:07:50.831Z,13508.00
2019-04-26T06:08:49.545Z,13036.00
2019-04-26T06:09:50.151Z,12536.00
2019-04-26T06:10:49.532Z,12024.00
2019-04-26T06:11:50.252Z,11892.00
2019-04-26T06:12:51.040Z,12284.00
2019-04-26T06:13:49.449Z,12712.00
2019-04-26T06:14:50.481Z,12956.00
2019-04-26T06:15:51.412Z,13012.00
2019-04-26T06:16:49.393Z,13116.00
2019-04-26T06:17:49.375Z,13224.00
2019-04-26T06:18:49.358Z,13436.00
2019-04-26T06:19:49.334Z,13740.00
2019-04-26T06:20:49.318Z,13856.00
2019-04-26T06:21:49.298Z,13852.00
2019-04-26T06:22:51.999Z,13896.00
2019-04-26T06:23:49.257Z,14048.00
2019-04-26T06:24:49.236Z,14460.00
2019-04-26T06:25:49.224Z,14580.00
2019-04-26T06:26:49.198Z,14072.00
2019-04-26T06:27:49.185Z,13368.00
2019-04-26T06:28:49.161Z,12716.00
2019-04-26T06:29:49.144Z,12220.00
2019-04-26T06:30:49.122Z,12136.00
2019-04-26T06:31:49.115Z,12084.00
2019-04-26T06:32:56.571Z,11756.00
2019-04-26T06:33:49.078Z,11288.00
2019-04-26T06:34:49.041Z,10980.00
2019-04-26T06:35:49.063Z,10776.00
2019-04-26T06:36:49.011Z,10640.00
2019-04-26T06:37:48.987Z,10488.00
2019-04-26T06:38:48.971Z,10600.00
2019-04-26T06:39:48.949Z,11072.00
2019-04-26T06:40:48.929Z,11720.00
2019-04-26T06:41:48.906Z,12352.00
2019-04-26T06:42:48.890Z,12808.00
2019-04-26T06:43:48.874Z,13036.00
2019-04-26T06:44:48.895Z,13036.00
2019-04-26T06:45:48.829Z,12828.00
2019-04-26T06:46:48.810Z,12652.00
2019-04-26T06:47:48.814Z,12672.00
2019-04-26T06:48:48.779Z,12408.00
2019-04-26T06:49:48.758Z,12252.00
2019-04-26T06:50:48.737Z,12344.00
2019-04-26T06:51:48.719Z,12416.00
2019-04-26T06:52:48.701Z,12244.00
2019-04-26T06:53:48.679Z,11760.00
2019-04-26T06:54:48.660Z,11020.00
2019-04-26T06:55:48.655Z,10272.00
2019-04-26T06:56:48.621Z,9700.00
2019-04-26T06:57:48.601Z,9448.00
2019-04-26T06:58:48.581Z,9460.00
2019-04-26T06:59:48.556Z,9568.00
2019-04-26T07:00:48.549Z,9480.00
2019-04-26T07:01:48.525Z,9300.00
2019-04-26T07:02:48.504Z,9136.00
2019-04-26T07:03:48.489Z,9056.00
2019-04-26T07:04:48.468Z,9100.00
2019-04-26T07:05:48.446Z,9200.00
2019-04-26T07:06:48.424Z,9200.00
2019-04-26T07:07:48.412Z,9128.00
2019-04-26T07:08:57.249Z,9072.00
2019-04-26T07:09:48.375Z,8952.00
2019-04-26T07:10:48.387Z,8744.00
2019-04-26T07:11:48.329Z,8692.00
2019-04-26T07:12:48.312Z,8844.00
2019-04-26T07:13:48.282Z,9080.00
2019-04-26T07:14:48.262Z,9408.00
2019-04-26T07:15:48.277Z,9784.00
2019-04-26T07:16:48.229Z,10260.00
2019-04-26T07:17:48.240Z,10764.00
2019-04-26T07:18:48.190Z,11016.00
2019-04-26T07:19:48.169Z,11028.00
2019-04-26T07:20:48.207Z,11004.00
2019-04-26T07:21:48.149Z,11064.00
2019-04-26T07:22:48.102Z,11116.00
2019-04-26T07:23:48.087Z,11172.00
2019-04-26T07:24:48.068Z,11120.00
2019-04-26T07:25:48.071Z,11072.00
2019-04-26T07:26:48.025Z,11192.00
2019-04-26T07:27:48.058Z,11480.00
2019-04-26T07:28:47.989Z,11884.00
2019-04-26T07:29:47.967Z,12188.00
2019-04-26T07:30:47.953Z,12436.00
2019-04-26T07:31:47.934Z,12764.00
2019-04-26T07:32:47.913Z,13260.00
2019-04-26T07:33:47.894Z,13692.00
2019-04-26T07:34:47.881Z,13856.00
2019-04-26T07:35:47.849Z,13956.00
2019-04-26T07:36:47.827Z,14020.00
2019-04-26T07:37:47.809Z,14064.00
2019-04-26T07:38:47.796Z,14264.00
2019-04-26T07:39:47.780Z,14408.00
2019-04-26T07:40:47.756Z,13988.00
2019-04-26T07:41:47.731Z,13412.00
2019-04-26T07:42:47.722Z,12860.00
2019-04-26T07:43:47.696Z,12308.00
2019-04-26T07:44:47.675Z,11832.00
2019-04-26T07:45:47.652Z,11480.00
2019-04-26T07:46:47.633Z,11280.00
2019-04-26T07:47:47.614Z,11332.00
2019-04-26T07:48:47.601Z,11648.00
2019-04-26T07:49:47.565Z,12044.00
2019-04-26T07:50:47.551Z,12140.00
2019-04-26T07:51:47.532Z,12108.00
2019-04-26T07:52:47.509Z,12180.00
2019-04-26T07:53:47.492Z,12248.00
2019-04-26T07:54:47.472Z,12284.00
2019-04-26T07:55:47.448Z,12512.00
2019-04-26T07:56:47.451Z,12824.00
2019-04-26T07:57:47.424Z,12960.00
2019-04-26T07:58:47.395Z,12820.00
2019-04-26T07:59:47.368Z,12660.00
2019-04-26T08:00:47.346Z,12708.00
2019-04-26T08:01:47.330Z,12872.00
2019-04-26T08:02:47.309Z,13064.00
2019-04-26T08:03:47.295Z,13144.00
2019-04-26T08:04:47.281Z,13192.00
2019-04-26T08:05:47.245Z,13300.00
2019-04-26T08:06:47.228Z,13248.00
2019-04-26T08:07:47.216Z,12788.00
2019-04-26T08:08:47.189Z,11920.00
2019-04-26T08:09:59.214Z,11220.00
2019-04-26T08:10:47.150Z,11112.00
2019-04-26T08:11:47.123Z,11256.00
2019-04-26T08:12:47.112Z,11456.00
2019-04-26T08:13:47.090Z,11672.00
2019-04-26T08:14:47.065Z,11864.00
2019-04-26T08:15:47.046Z,11812.00
2019-04-26T08:16:47.032Z,11436.00
2019-04-26T08:17:47.009Z,11400.00
2019-04-26T08:18:46.990Z,11544.00
2019-04-26T08:19:46.965Z,11976.00
2019-04-26T08:20:48.292Z,12180.00
2019-04-26T08:21:48.202Z,12184.00
2019-04-26T08:22:46.911Z,12256.00
2019-04-26T08:23:46.884Z,12504.00
2019-04-26T08:24:46.865Z,12604.00
2019-04-26T08:25:46.845Z,12564.00
2019-04-26T08:26:46.827Z,12640.00
2019-04-26T08:27:47.074Z,12804.00
2019-04-26T08:28:46.793Z,12980.00
2019-04-26T08:29:46.766Z,13416.00
2019-04-26T08:30:46.747Z,13792.00
2019-04-26T08:31:46.724Z,14060.00
2019-04-26T08:32:46.814Z,14240.00
2019-04-26T08:33:48.791Z,14276.00
2019-04-26T08:34:46.665Z,14264.00
2019-04-26T08:35:48.948Z,14060.00
2019-04-26T08:36:46.625Z,13588.00
2019-04-26T08:37:46.602Z,13308.00
2019-04-26T08:38:48.838Z,13224.00
2019-04-26T08:39:51.692Z,13136.00
2019-04-26T08:40:46.551Z,12560.00
2019-04-26T08:41:46.527Z,11708.00
2019-04-26T08:42:46.515Z,11516.00
2019-04-26T08:43:46.483Z,11736.00
2019-04-26T08:44:46.469Z,11920.00
2019-04-26T08:46:01.747Z,12024.00
2019-04-26T08:46:46.441Z,12004.00
2019-04-26T08:47:50.048Z,12348.00
2019-04-26T08:48:46.389Z,12836.00
2019-04-26T08:49:47.270Z,12980.00
2019-04-26T08:50:47.053Z,12752.00
2019-04-26T08:51:46.320Z,12448.00
2019-04-26T08:52:46.333Z,12164.00
2019-04-26T08:53:46.275Z,12404.00
2019-04-26T08:54:46.260Z,12968.00
2019-04-26T08:55:46.234Z,13660.00
2019-04-26T08:56:46.214Z,14540.00
2019-04-26T08:57:46.210Z,15472.00
2019-04-26T08:58:46.182Z,16280.00
2019-04-26T08:59:46.155Z,17344.00
2019-04-26T09:00:46.133Z,17952.00
2019-04-26T09:01:46.613Z,17984.00
2019-04-26T09:02:46.092Z,17824.00
2019-04-26T09:03:46.065Z,17984.00
2019-04-26T09:04:46.053Z,18208.00
2019-04-26T09:05:49.809Z,18496.00
2019-04-26T09:06:46.009Z,18752.00
2019-04-26T09:07:45.986Z,18400.00
2019-04-26T09:08:45.970Z,17664.00
2019-04-26T09:09:56.737Z,16436.00
2019-04-26T09:10:45.924Z,15192.00
2019-04-26T09:11:45.904Z,13996.00
2019-04-26T09:12:45.885Z,12888.00
2019-04-26T09:13:45.864Z,12096.00
2019-04-26T09:14:45.843Z,11856.00
2019-04-26T09:15:45.825Z,12056.00
2019-04-26T09:16:50.513Z,12576.00
2019-04-26T09:17:45.796Z,13824.00
2019-04-26T09:18:52.942Z,15960.00
2019-04-26T09:19:45.735Z,18784.00
2019-04-26T09:20:45.723Z,21568.00
2019-04-26T09:21:47.420Z,24576.00
2019-04-26T09:22:45.684Z,26720.00
2019-04-26T09:23:50.819Z,27168.00
2019-04-26T09:24:45.638Z,25696.00
2019-04-26T09:25:45.616Z,21920.00
2019-04-26T09:26:46.620Z,18176.00
2019-04-26T09:27:45.573Z,15704.00
2019-04-26T09:28:45.546Z,14508.00
2019-04-26T09:29:45.529Z,14072.00
2019-04-26T09:30:47.696Z,13716.00
2019-04-26T09:31:45.489Z,13404.00
2019-04-26T09:32:45.469Z,13392.00
2019-04-26T09:33:45.452Z,13504.00
2019-04-26T09:34:45.425Z,13720.00
2019-04-26T09:35:45.403Z,14224.00
2019-04-26T09:36:45.388Z,15392.00
2019-04-26T09:37:45.371Z,17568.00
2019-04-26T09:38:45.340Z,19968.00
2019-04-26T09:39:45.322Z,22240.00
2019-04-26T09:40:45.301Z,24768.00
2019-04-26T09:41:45.324Z,31488.00
2019-04-26T09:42:45.256Z,34880.00
2019-04-26T09:43:45.237Z,34624.00
2019-04-26T09:44:45.217Z,34048.00
2019-04-26T09:45:47.931Z,31744.00
2019-04-26T09:46:48.514Z,29792.00
2019-04-26T09:47:45.154Z,29056.00
2019-04-26T09:48:45.133Z,28544.00
2019-04-26T09:49:45.108Z,28032.00
2019-04-26T09:50:45.088Z,27136.00
2019-04-26T09:51:45.072Z,26528.00
2019-04-26T09:52:45.049Z,26400.00
2019-04-26T09:53:45.029Z,27328.00
2019-04-26T09:54:45.009Z,29728.00
2019-04-26T09:55:44.987Z,33280.00
2019-04-26T09:56:44.974Z,37568.00
2019-04-26T09:57:44.947Z,47296.00
2019-04-26T09:58:44.925Z,50816.00
2019-04-26T09:59:44.909Z,45376.00
2019-04-26T10:00:48.501Z,39040.00
2019-04-26T10:01:44.860Z,36576.00
2019-04-26T10:02:44.842Z,29216.00
2019-04-26T10:03:44.821Z,24480.00
2019-04-26T10:04:44.799Z,21440.00
2019-04-26T10:05:44.784Z,18240.00
2019-04-26T10:06:44.766Z,14692.00
2019-04-26T10:07:44.757Z,12360.00
2019-04-26T10:08:47.066Z,11020.00
2019-04-26T10:09:44.699Z,10344.00
2019-04-26T10:10:44.716Z,10128.00
2019-04-26T10:11:44.659Z,10304.00
2019-04-26T10:12:44.641Z,10876.00
2019-04-26T10:13:44.621Z,11716.00
2019-04-26T10:14:46.484Z,12692.00
2019-04-26T10:15:44.582Z,13624.00
2019-04-26T10:16:44.565Z,14324.00
2019-04-26T10:17:46.443Z,14620.00
2019-04-26T10:18:44.519Z,14492.00
2019-04-26T10:19:44.547Z,14216.00
2019-04-26T10:20:44.479Z,14048.00
2019-04-26T10:21:44.460Z,14128.00
2019-04-26T10:22:44.439Z,14464.00
2019-04-26T10:23:44.419Z,15244.00
2019-04-26T10:24:44.409Z,16592.00
2019-04-26T10:25:47.323Z,18400.00
2019-04-26T10:26:44.357Z,19232.00
2019-04-26T10:27:44.337Z,18528.00
2019-04-26T10:28:46.703Z,17152.00
2019-04-26T10:29:44.295Z,16380.00
2019-04-26T10:30:44.273Z,16604.00
2019-04-26T10:31:47.632Z,17184.00
2019-04-26T10:32:44.255Z,17376.00
2019-04-26T10:33:44.208Z,17568.00
2019-04-26T10:34:47.498Z,18048.00
2019-04-26T10:35:44.171Z,18784.00
2019-04-26T10:36:44.151Z,19104.00
2019-04-26T10:37:47.971Z,18816.00
2019-04-26T10:38:44.118Z,18240.00
2019-04-26T10:39:44.088Z,17856.00
2019-04-26T10:40:44.081Z,17632.00
2019-04-26T10:41:44.046Z,17664.00
2019-04-26T10:42:44.031Z,18112.00
2019-04-26T10:43:44.059Z,19264.00
2019-04-26T10:44:43.988Z,20288.00
2019-04-26T10:45:45.897Z,18464.00
2019-04-26T10:46:55.070Z,16020.00
2019-04-26T10:47:43.920Z,14680.00
2019-04-26T10:48:45.496Z,13728.00
2019-04-26T10:49:43.884Z,12772.00
2019-04-26T10:50:43.859Z,11728.00
2019-04-26T10:51:43.842Z,10856.00
2019-04-26T10:52:49.449Z,10396.00
2019-04-26T10:53:43.799Z,10232.00
2019-04-26T10:54:46.011Z,10436.00
2019-04-26T10:55:46.543Z,11196.00
2019-04-26T10:56:43.738Z,12692.00
2019-04-26T10:57:43.718Z,14952.00
2019-04-26T10:58:43.726Z,17600.00
2019-04-26T10:59:44.073Z,18944.00
2019-04-26T11:00:43.657Z,18144.00
2019-04-26T11:01:43.634Z,15764.00
2019-04-26T11:02:43.610Z,12872.00
2019-04-26T11:03:43.595Z,10276.00
2019-04-26T11:04:43.568Z,8796.00
2019-04-26T11:05:43.551Z,8404.00
2019-04-26T11:06:43.532Z,8532.00
2019-04-26T11:07:43.509Z,8804.00
2019-04-26T11:08:43.491Z,8976.00
2019-04-26T11:09:43.466Z,9004.00
2019-04-26T11:10:48.933Z,9072.00
2019-04-26T11:11:43.425Z,9532.00
2019-04-26T11:12:44.756Z,10252.00
2019-04-26T11:13:43.392Z,11048.00
2019-04-26T11:14:43.367Z,11516.00
2019-04-26T11:15:43.339Z,11368.00
2019-04-26T11:16:43.313Z,10236.00
2019-04-26T11:17:46.051Z,8744.00
2019-04-26T11:18:43.274Z,7732.00
2019-04-26T11:19:44.239Z,7060.00
2019-04-26T11:20:45.630Z,6904.00
2019-04-26T11:21:43.212Z,6984.00
2019-04-26T11:22:43.184Z,6944.00
2019-04-26T11:23:45.458Z,6752.00
2019-04-26T11:24:43.142Z,6492.00
2019-04-26T11:25:43.118Z,6356.00
2019-04-26T11:26:43.118Z,6480.00
2019-04-26T11:27:44.291Z,6736.00
2019-04-26T11:28:43.057Z,7072.00
2019-04-26T11:29:53.266Z,7336.00
2019-04-26T11:30:43.008Z,7540.00
2019-04-26T11:31:43.012Z,7652.00
2019-04-26T11:32:42.969Z,7528.00
2019-04-26T11:33:44.857Z,7448.00
2019-04-26T11:34:43.074Z,7592.00
2019-04-26T11:35:42.897Z,7776.00
2019-04-26T11:36:43.082Z,7756.00
2019-04-26T11:37:42.859Z,7628.00
2019-04-26T11:38:42.855Z,7704.00
2019-04-26T11:39:42.827Z,7960.00
2019-04-26T11:40:44.302Z,8328.00
2019-04-26T11:41:42.771Z,8508.00
2019-04-26T11:42:45.755Z,8108.00
2019-04-26T11:43:42.741Z,7484.00
2019-04-26T11:44:44.444Z,7052.00
2019-04-26T11:45:45.430Z,7048.00
2019-04-26T11:46:45.045Z,7148.00
2019-04-26T11:47:54.264Z,7212.00
2019-04-26T11:48:42.613Z,7328.00
2019-04-26T11:49:43.023Z,7392.00
2019-04-26T11:50:42.566Z,7092.00
2019-04-26T11:51:42.544Z,6668.00
2019-04-26T11:52:42.523Z,7356.00
2019-04-26T11:53:44.713Z,8024.00
2019-04-26T11:54:42.476Z,8728.00
2019-04-26T11:55:42.455Z,9276.00
2019-04-26T11:56:42.431Z,9524.00
2019-04-26T11:57:43.722Z,9716.00
2019-04-26T11:58:42.390Z,9612.00
2019-04-26T11:59:42.373Z,9276.00
2019-04-26T12:00:42.343Z,8888.00
2019-04-26T12:01:42.325Z,8780.00
2019-04-26T12:02:42.306Z,8900.00
2019-04-26T12:03:42.278Z,8920.00
2019-04-26T12:04:42.255Z,8744.00
2019-04-26T12:05:42.233Z,8516.00
2019-04-26T12:06:42.208Z,8304.00
2019-04-26T12:07:42.181Z,8096.00
2019-04-26T12:08:42.169Z,8016.00
2019-04-26T12:09:42.143Z,7960.00
2019-04-26T12:10:44.466Z,7776.00
2019-04-26T12:11:49.413Z,7660.00
2019-04-26T12:12:43.176Z,7792.00
2019-04-26T12:13:42.053Z,7928.00
2019-04-26T12:14:42.036Z,7768.00
2019-04-26T12:15:43.881Z,7432.00
2019-04-26T12:16:49.452Z,7168.00
2019-04-26T12:17:41.962Z,6936.00
2019-04-26T12:18:44.146Z,6912.00
2019-04-26T12:19:41.917Z,7040.00
2019-04-26T12:20:41.892Z,7224.00
2019-04-26T12:21:41.872Z,7384.00
2019-04-26T12:22:43.321Z,7372.00
2019-04-26T12:23:41.826Z,7232.00
2019-04-26T12:24:41.805Z,7156.00
2019-04-26T12:25:43.634Z,7276.00